sensor_id;sensor_type;location;lat;lon;timestamp;P1;durP1;ratioP1;P2;durP2;ratioP2
59950;SDS011;45812;53.540;9.774;2023-02-21T00:01:07;3.67;;;1.65;;
59950;SDS011;45812;53.540;9.774;2023-02-21T00:03:51;4.70;;;1.55;;
59950;SDS011;45812;53.540;9.774;2023-02-21T00:06:35;5.65;;;1.67;;
59950;SDS011;45812;53.540;9.774;2023-02-21T00:09:18;1.95;;;1.27;;
59950;SDS011;45812;53.540;9.774;2023-02-21T00:12:02;2.63;;;1.52;;
59950;SDS011;45812;53.540;9.774;2023-02-21T00:14:46;4.78;;;1.30;;
59950;SDS011;45812;53.540;9.774;2023-02-21T00:17:30;2.42;;;1.38;;
59950;SDS011;45812;53.540;9.774;2023-02-21T00:20:14;3.38;;;1.30;;
59950;SDS011;45812;53.540;9.774;2023-02-21T00:22:58;2.80;;;1.10;;
59950;SDS011;45812;53.540;9.774;2023-02-21T00:25:42;2.22;;;1.27;;
59950;SDS011;45812;53.540;9.774;2023-02-21T00:28:26;5.97;;;1.45;;
59950;SDS011;45812;53.540;9.774;2023-02-21T00:31:10;3.75;;;2.08;;
59950;SDS011;45812;53.540;9.774;2023-02-21T00:33:53;3.72;;;1.10;;
59950;SDS011;45812;53.540;9.774;2023-02-21T00:36:37;4.55;;;1.20;;
59950;SDS011;45812;53.540;9.774;2023-02-21T00:39:21;5.97;;;1.50;;
59950;SDS011;45812;53.540;9.774;2023-02-21T00:42:05;1.45;;;0.88;;
59950;SDS011;45812;53.540;9.774;2023-02-21T00:44:49;3.15;;;1.65;;
59950;SDS011;45812;53.540;9.774;2023-02-21T00:47:33;3.35;;;1.67;;
59950;SDS011;45812;53.540;9.774;2023-02-21T00:50:17;1.58;;;1.42;;
59950;SDS011;45812;53.540;9.774;2023-02-21T00:53:01;4.97;;;1.55;;
59950;SDS011;45812;53.540;9.774;2023-02-21T00:55:45;3.50;;;1.33;;
59950;SDS011;45812;53.540;9.774;2023-02-21T00:58:28;3.90;;;1.33;;
59950;SDS011;45812;53.540;9.774;2023-02-21T01:01:12;4.40;;;1.70;;
59950;SDS011;45812;53.540;9.774;2023-02-21T01:03:57;4.85;;;1.42;;
59950;SDS011;45812;53.540;9.774;2023-02-21T01:06:41;2.42;;;1.17;;
59950;SDS011;45812;53.540;9.774;2023-02-21T01:09:25;4.15;;;1.10;;
59950;SDS011;45812;53.540;9.774;2023-02-21T01:12:08;2.42;;;1.27;;
59950;SDS011;45812;53.540;9.774;2023-02-21T01:14:52;5.05;;;1.55;;
59950;SDS011;45812;53.540;9.774;2023-02-21T01:17:36;4.68;;;1.58;;
59950;SDS011;45812;53.540;9.774;2023-02-21T01:20:20;1.33;;;1.17;;
59950;SDS011;45812;53.540;9.774;2023-02-21T01:23:04;2.33;;;1.77;;
59950;SDS011;45812;53.540;9.774;2023-02-21T01:25:48;6.00;;;1.55;;
59950;SDS011;45812;53.540;9.774;2023-02-21T01:28:32;1.60;;;1.05;;
59950;SDS011;45812;53.540;9.774;2023-02-21T01:31:17;4.80;;;0.98;;
59950;SDS011;45812;53.540;9.774;2023-02-21T01:34:01;5.03;;;1.23;;
59950;SDS011;45812;53.540;9.774;2023-02-21T01:36:45;4.57;;;1.65;;
59950;SDS011;45812;53.540;9.774;2023-02-21T01:39:29;6.25;;;1.80;;
59950;SDS011;45812;53.540;9.774;2023-02-21T01:42:13;3.30;;;1.73;;
59950;SDS011;45812;53.540;9.774;2023-02-21T01:45:57;3.40;;;2.00;;
59950;SDS011;45812;53.540;9.774;2023-02-21T01:48:20;10.77;;;2.70;;
59950;SDS011;45812;53.540;9.774;2023-02-21T01:51:07;3.05;;;2.30;;
59950;SDS011;45812;53.540;9.774;2023-02-21T01:53:54;3.85;;;1.98;;
59950;SDS011;45812;53.540;9.774;2023-02-21T01:56:38;8.00;;;2.50;;
59950;SDS011;45812;53.540;9.774;2023-02-21T01:59:23;11.80;;;2.67;;
59950;SDS011;45812;53.540;9.774;2023-02-21T02:02:10;6.10;;;2.42;;
59950;SDS011;45812;53.540;9.774;2023-02-21T02:05:00;5.93;;;2.42;;
59950;SDS011;45812;53.540;9.774;2023-02-21T02:07:44;8.20;;;2.88;;
59950;SDS011;45812;53.540;9.774;2023-02-21T02:10:29;6.75;;;2.78;;
59950;SDS011;45812;53.540;9.774;2023-02-21T02:16:17;5.13;;;2.53;;
59950;SDS011;45812;53.540;9.774;2023-02-21T02:18:58;10.32;;;2.85;;
59950;SDS011;45812;53.540;9.774;2023-02-21T02:27:12;6.57;;;2.55;;
59950;SDS011;45812;53.540;9.774;2023-02-21T02:35:03;7.40;;;2.33;;
59950;SDS011;45812;53.540;9.774;2023-02-21T02:37:46;5.90;;;2.28;;
59950;SDS011;45812;53.540;9.774;2023-02-21T02:43:51;5.38;;;1.75;;
59950;SDS011;45812;53.540;9.774;2023-02-21T02:46:21;5.70;;;1.50;;
59950;SDS011;45812;53.540;9.774;2023-02-21T02:48:52;3.83;;;1.02;;
59950;SDS011;45812;53.540;9.774;2023-02-21T02:51:24;5.07;;;1.50;;
59950;SDS011;45812;53.540;9.774;2023-02-21T02:53:49;7.32;;;1.98;;
59950;SDS011;45812;53.540;9.774;2023-02-21T02:56:15;4.13;;;1.38;;
59950;SDS011;45812;53.540;9.774;2023-02-21T02:58:46;3.80;;;1.20;;
59950;SDS011;45812;53.540;9.774;2023-02-21T03:01:19;1.50;;;0.90;;
59950;SDS011;45812;53.540;9.774;2023-02-21T03:07:01;1.73;;;0.98;;
59950;SDS011;45812;53.540;9.774;2023-02-21T03:09:47;3.58;;;0.82;;
59950;SDS011;45812;53.540;9.774;2023-02-21T03:12:24;2.63;;;0.75;;
59950;SDS011;45812;53.540;9.774;2023-02-21T03:15:00;3.10;;;0.85;;
59950;SDS011;45812;53.540;9.774;2023-02-21T03:17:31;6.60;;;1.13;;
59950;SDS011;45812;53.540;9.774;2023-02-21T03:20:01;3.22;;;1.05;;
59950;SDS011;45812;53.540;9.774;2023-02-21T03:22:27;1.35;;;0.93;;
59950;SDS011;45812;53.540;9.774;2023-02-21T03:24:55;0.85;;;0.85;;
59950;SDS011;45812;53.540;9.774;2023-02-21T03:27:23;3.13;;;0.85;;
59950;SDS011;45812;53.540;9.774;2023-02-21T03:29:51;8.43;;;1.20;;
59950;SDS011;45812;53.540;9.774;2023-02-21T03:32:30;3.03;;;1.05;;
59950;SDS011;45812;53.540;9.774;2023-02-21T03:34:59;4.35;;;1.50;;
59950;SDS011;45812;53.540;9.774;2023-02-21T03:37:35;5.93;;;1.55;;
59950;SDS011;45812;53.540;9.774;2023-02-21T03:40:07;3.20;;;1.33;;
59950;SDS011;45812;53.540;9.774;2023-02-21T03:42:35;6.05;;;1.55;;
59950;SDS011;45812;53.540;9.774;2023-02-21T03:45:00;3.28;;;2.30;;
59950;SDS011;45812;53.540;9.774;2023-02-21T03:47:26;5.18;;;1.52;;
59950;SDS011;45812;53.540;9.774;2023-02-21T03:49:51;2.80;;;1.45;;
59950;SDS011;45812;53.540;9.774;2023-02-21T03:52:16;3.22;;;1.70;;
59950;SDS011;45812;53.540;9.774;2023-02-21T03:54:42;3.58;;;1.70;;
59950;SDS011;45812;53.540;9.774;2023-02-21T03:57:07;6.68;;;1.42;;
59950;SDS011;45812;53.540;9.774;2023-02-21T03:59:33;5.00;;;1.25;;
59950;SDS011;45812;53.540;9.774;2023-02-21T04:01:58;1.77;;;0.98;;
59950;SDS011;45812;53.540;9.774;2023-02-21T04:04:24;4.72;;;1.55;;
59950;SDS011;45812;53.540;9.774;2023-02-21T04:06:49;4.75;;;1.42;;
59950;SDS011;45812;53.540;9.774;2023-02-21T04:09:14;1.55;;;0.90;;
59950;SDS011;45812;53.540;9.774;2023-02-21T04:11:43;1.42;;;0.85;;
59950;SDS011;45812;53.540;9.774;2023-02-21T04:14:09;5.07;;;1.00;;
59950;SDS011;45812;53.540;9.774;2023-02-21T04:16:34;1.30;;;0.77;;
59950;SDS011;45812;53.540;9.774;2023-02-21T04:19:00;2.53;;;1.27;;
59950;SDS011;45812;53.540;9.774;2023-02-21T04:21:25;3.40;;;1.00;;
59950;SDS011;45812;53.540;9.774;2023-02-21T04:23:50;3.38;;;1.23;;
59950;SDS011;45812;53.540;9.774;2023-02-21T04:26:15;1.27;;;0.75;;
59950;SDS011;45812;53.540;9.774;2023-02-21T04:28:41;0.90;;;0.50;;
59950;SDS011;45812;53.540;9.774;2023-02-21T04:31:06;4.18;;;1.38;;
59950;SDS011;45812;53.540;9.774;2023-02-21T04:33:31;0.70;;;0.70;;
59950;SDS011;45812;53.540;9.774;2023-02-21T04:35:57;3.88;;;1.17;;
59950;SDS011;45812;53.540;9.774;2023-02-21T04:38:22;5.65;;;1.88;;
59950;SDS011;45812;53.540;9.774;2023-02-21T04:40:47;1.35;;;0.90;;
59950;SDS011;45812;53.540;9.774;2023-02-21T04:43:12;7.07;;;1.10;;
59950;SDS011;45812;53.540;9.774;2023-02-21T04:45:37;4.00;;;1.00;;
59950;SDS011;45812;53.540;9.774;2023-02-21T04:48:03;8.52;;;1.73;;
59950;SDS011;45812;53.540;9.774;2023-02-21T04:50:28;6.05;;;1.88;;
59950;SDS011;45812;53.540;9.774;2023-02-21T04:52:53;3.50;;;1.45;;
59950;SDS011;45812;53.540;9.774;2023-02-21T04:55:19;9.50;;;2.22;;
59950;SDS011;45812;53.540;9.774;2023-02-21T04:57:44;11.13;;;1.92;;
59950;SDS011;45812;53.540;9.774;2023-02-21T05:00:10;4.30;;;1.13;;
59950;SDS011;45812;53.540;9.774;2023-02-21T05:02:35;12.77;;;2.00;;
59950;SDS011;45812;53.540;9.774;2023-02-21T05:05:01;9.48;;;2.40;;
59950;SDS011;45812;53.540;9.774;2023-02-21T05:07:27;10.73;;;2.80;;
59950;SDS011;45812;53.540;9.774;2023-02-21T05:09:52;14.05;;;1.88;;
59950;SDS011;45812;53.540;9.774;2023-02-21T05:12:17;14.60;;;2.63;;
59950;SDS011;45812;53.540;9.774;2023-02-21T05:14:42;10.35;;;2.13;;
59950;SDS011;45812;53.540;9.774;2023-02-21T05:17:08;12.40;;;2.65;;
59950;SDS011;45812;53.540;9.774;2023-02-21T05:19:33;13.85;;;2.30;;
59950;SDS011;45812;53.540;9.774;2023-02-21T05:21:59;18.50;;;2.35;;
59950;SDS011;45812;53.540;9.774;2023-02-21T05:24:29;12.55;;;2.55;;
59950;SDS011;45812;53.540;9.774;2023-02-21T05:26:55;15.55;;;3.30;;
59950;SDS011;45812;53.540;9.774;2023-02-21T05:29:22;8.80;;;2.50;;
59950;SDS011;45812;53.540;9.774;2023-02-21T05:31:47;6.00;;;2.35;;
59950;SDS011;45812;53.540;9.774;2023-02-21T05:34:13;7.65;;;1.77;;
59950;SDS011;45812;53.540;9.774;2023-02-21T05:36:39;9.20;;;1.60;;
59950;SDS011;45812;53.540;9.774;2023-02-21T05:39:05;17.67;;;5.65;;
59950;SDS011;45812;53.540;9.774;2023-02-21T05:41:31;13.20;;;2.33;;
59950;SDS011;45812;53.540;9.774;2023-02-21T05:43:57;13.45;;;2.15;;
59950;SDS011;45812;53.540;9.774;2023-02-21T05:46:26;11.20;;;2.83;;
59950;SDS011;45812;53.540;9.774;2023-02-21T05:48:54;18.95;;;2.90;;
59950;SDS011;45812;53.540;9.774;2023-02-21T05:51:20;18.63;;;2.47;;
59950;SDS011;45812;53.540;9.774;2023-02-21T05:53:46;10.43;;;2.17;;
59950;SDS011;45812;53.540;9.774;2023-02-21T05:56:11;16.58;;;2.40;;
59950;SDS011;45812;53.540;9.774;2023-02-21T05:58:37;17.02;;;2.65;;
59950;SDS011;45812;53.540;9.774;2023-02-21T06:01:02;13.55;;;2.45;;
59950;SDS011;45812;53.540;9.774;2023-02-21T06:03:28;16.30;;;2.33;;
59950;SDS011;45812;53.540;9.774;2023-02-21T06:05:53;13.43;;;2.53;;
59950;SDS011;45812;53.540;9.774;2023-02-21T06:08:19;15.88;;;2.53;;
59950;SDS011;45812;53.540;9.774;2023-02-21T06:10:44;10.23;;;2.28;;
59950;SDS011;45812;53.540;9.774;2023-02-21T06:13:09;19.65;;;2.53;;
59950;SDS011;45812;53.540;9.774;2023-02-21T06:15:34;10.88;;;2.03;;
59950;SDS011;45812;53.540;9.774;2023-02-21T06:18:00;18.00;;;3.25;;
59950;SDS011;45812;53.540;9.774;2023-02-21T06:20:25;13.50;;;2.58;;
59950;SDS011;45812;53.540;9.774;2023-02-21T06:22:50;15.60;;;2.60;;
59950;SDS011;45812;53.540;9.774;2023-02-21T06:25:16;14.77;;;3.00;;
59950;SDS011;45812;53.540;9.774;2023-02-21T06:27:41;15.35;;;2.45;;
59950;SDS011;45812;53.540;9.774;2023-02-21T06:30:08;8.20;;;2.65;;
59950;SDS011;45812;53.540;9.774;2023-02-21T06:32:34;22.98;;;3.60;;
59950;SDS011;45812;53.540;9.774;2023-02-21T06:34:59;23.83;;;3.05;;
59950;SDS011;45812;53.540;9.774;2023-02-21T06:37:24;13.90;;;3.80;;
59950;SDS011;45812;53.540;9.774;2023-02-21T06:39:50;11.95;;;2.40;;
59950;SDS011;45812;53.540;9.774;2023-02-21T06:42:15;9.93;;;2.60;;
59950;SDS011;45812;53.540;9.774;2023-02-21T06:44:45;12.32;;;2.45;;
59950;SDS011;45812;53.540;9.774;2023-02-21T06:47:11;18.92;;;2.58;;
59950;SDS011;45812;53.540;9.774;2023-02-21T06:49:36;11.73;;;3.05;;
59950;SDS011;45812;53.540;9.774;2023-02-21T06:52:01;17.48;;;3.05;;
59950;SDS011;45812;53.540;9.774;2023-02-21T06:54:27;14.55;;;3.28;;
59950;SDS011;45812;53.540;9.774;2023-02-21T06:56:53;17.42;;;3.10;;
59950;SDS011;45812;53.540;9.774;2023-02-21T06:59:19;12.50;;;2.13;;
59950;SDS011;45812;53.540;9.774;2023-02-21T07:01:44;17.15;;;2.75;;
59950;SDS011;45812;53.540;9.774;2023-02-21T07:04:10;17.23;;;3.78;;
59950;SDS011;45812;53.540;9.774;2023-02-21T07:06:35;14.60;;;3.03;;
59950;SDS011;45812;53.540;9.774;2023-02-21T07:09:00;15.43;;;2.60;;
59950;SDS011;45812;53.540;9.774;2023-02-21T07:11:25;9.95;;;2.53;;
59950;SDS011;45812;53.540;9.774;2023-02-21T07:13:53;12.48;;;2.75;;
59950;SDS011;45812;53.540;9.774;2023-02-21T07:16:21;17.38;;;4.82;;
59950;SDS011;45812;53.540;9.774;2023-02-21T07:18:46;17.73;;;3.42;;
59950;SDS011;45812;53.540;9.774;2023-02-21T07:21:12;8.63;;;2.40;;
59950;SDS011;45812;53.540;9.774;2023-02-21T07:23:38;22.05;;;4.25;;
59950;SDS011;45812;53.540;9.774;2023-02-21T07:26:04;7.15;;;2.50;;
59950;SDS011;45812;53.540;9.774;2023-02-21T07:28:29;12.98;;;2.90;;
59950;SDS011;45812;53.540;9.774;2023-02-21T07:30:54;14.45;;;3.45;;
59950;SDS011;45812;53.540;9.774;2023-02-21T07:33:19;14.68;;;3.65;;
59950;SDS011;45812;53.540;9.774;2023-02-21T07:35:45;17.27;;;3.45;;
59950;SDS011;45812;53.540;9.774;2023-02-21T07:38:18;13.02;;;3.88;;
59950;SDS011;45812;53.540;9.774;2023-02-21T07:40:44;16.23;;;3.65;;
59950;SDS011;45812;53.540;9.774;2023-02-21T07:43:09;12.85;;;3.42;;
59950;SDS011;45812;53.540;9.774;2023-02-21T07:45:35;15.85;;;3.08;;
59950;SDS011;45812;53.540;9.774;2023-02-21T07:48:00;17.75;;;3.30;;
59950;SDS011;45812;53.540;9.774;2023-02-21T07:50:25;15.95;;;3.63;;
59950;SDS011;45812;53.540;9.774;2023-02-21T07:52:50;14.35;;;3.92;;
59950;SDS011;45812;53.540;9.774;2023-02-21T07:55:15;25.13;;;4.28;;
59950;SDS011;45812;53.540;9.774;2023-02-21T07:57:41;13.63;;;3.50;;
59950;SDS011;45812;53.540;9.774;2023-02-21T08:00:06;13.60;;;3.55;;
59950;SDS011;45812;53.540;9.774;2023-02-21T08:02:32;17.45;;;3.78;;
59950;SDS011;45812;53.540;9.774;2023-02-21T08:04:57;14.38;;;3.42;;
59950;SDS011;45812;53.540;9.774;2023-02-21T08:07:23;19.90;;;3.78;;
59950;SDS011;45812;53.540;9.774;2023-02-21T08:09:49;15.80;;;3.80;;
59950;SDS011;45812;53.540;9.774;2023-02-21T08:12:15;17.02;;;3.60;;
59950;SDS011;45812;53.540;9.774;2023-02-21T08:14:40;19.88;;;4.00;;
59950;SDS011;45812;53.540;9.774;2023-02-21T08:17:05;9.88;;;2.53;;
59950;SDS011;45812;53.540;9.774;2023-02-21T08:19:31;15.23;;;3.75;;
59950;SDS011;45812;53.540;9.774;2023-02-21T08:21:56;18.30;;;3.33;;
59950;SDS011;45812;53.540;9.774;2023-02-21T08:24:21;20.20;;;5.70;;
59950;SDS011;45812;53.540;9.774;2023-02-21T08:26:47;18.65;;;3.58;;
59950;SDS011;45812;53.540;9.774;2023-02-21T08:29:12;18.85;;;3.80;;
59950;SDS011;45812;53.540;9.774;2023-02-21T08:31:39;9.45;;;2.92;;
59950;SDS011;45812;53.540;9.774;2023-02-21T08:34:06;16.98;;;3.58;;
59950;SDS011;45812;53.540;9.774;2023-02-21T08:36:32;18.67;;;3.33;;
59950;SDS011;45812;53.540;9.774;2023-02-21T08:38:59;11.18;;;2.95;;
59950;SDS011;45812;53.540;9.774;2023-02-21T08:41:25;12.95;;;3.55;;
59950;SDS011;45812;53.540;9.774;2023-02-21T08:43:59;22.85;;;4.43;;
59950;SDS011;45812;53.540;9.774;2023-02-21T08:46:24;21.33;;;3.90;;
59950;SDS011;45812;53.540;9.774;2023-02-21T08:48:50;17.88;;;3.75;;
59950;SDS011;45812;53.540;9.774;2023-02-21T08:51:15;13.70;;;4.03;;
59950;SDS011;45812;53.540;9.774;2023-02-21T08:53:40;14.68;;;2.95;;
59950;SDS011;45812;53.540;9.774;2023-02-21T08:56:05;13.00;;;3.25;;
59950;SDS011;45812;53.540;9.774;2023-02-21T08:58:31;14.95;;;3.15;;
59950;SDS011;45812;53.540;9.774;2023-02-21T09:00:56;10.48;;;3.03;;
59950;SDS011;45812;53.540;9.774;2023-02-21T09:03:21;15.20;;;3.50;;
59950;SDS011;45812;53.540;9.774;2023-02-21T09:05:46;17.30;;;3.58;;
59950;SDS011;45812;53.540;9.774;2023-02-21T09:08:12;23.60;;;4.25;;
59950;SDS011;45812;53.540;9.774;2023-02-21T09:10:37;24.80;;;4.03;;
59950;SDS011;45812;53.540;9.774;2023-02-21T09:13:11;11.13;;;2.97;;
59950;SDS011;45812;53.540;9.774;2023-02-21T09:15:36;10.75;;;2.78;;
59950;SDS011;45812;53.540;9.774;2023-02-21T09:18:01;8.70;;;2.80;;
59950;SDS011;45812;53.540;9.774;2023-02-21T09:20:27;10.65;;;2.47;;
59950;SDS011;45812;53.540;9.774;2023-02-21T09:22:52;12.85;;;3.45;;
59950;SDS011;45812;53.540;9.774;2023-02-21T09:25:19;13.07;;;2.67;;
59950;SDS011;45812;53.540;9.774;2023-02-21T09:27:48;16.48;;;3.70;;
59950;SDS011;45812;53.540;9.774;2023-02-21T09:30:14;15.40;;;3.38;;
59950;SDS011;45812;53.540;9.774;2023-02-21T09:32:41;15.10;;;3.00;;
59950;SDS011;45812;53.540;9.774;2023-02-21T09:35:07;19.40;;;3.58;;
59950;SDS011;45812;53.540;9.774;2023-02-21T09:37:38;18.00;;;3.92;;
59950;SDS011;45812;53.540;9.774;2023-02-21T09:40:06;9.73;;;2.50;;
59950;SDS011;45812;53.540;9.774;2023-02-21T09:42:52;16.92;;;2.92;;
59950;SDS011;45812;53.540;9.774;2023-02-21T09:45:20;9.55;;;2.85;;
59950;SDS011;45812;53.540;9.774;2023-02-21T09:47:50;14.70;;;2.97;;
59950;SDS011;45812;53.540;9.774;2023-02-21T09:50:20;14.48;;;2.53;;
59950;SDS011;45812;53.540;9.774;2023-02-21T09:52:51;10.40;;;2.42;;
59950;SDS011;45812;53.540;9.774;2023-02-21T09:55:28;16.13;;;3.10;;
59950;SDS011;45812;53.540;9.774;2023-02-21T09:57:57;11.95;;;2.38;;
59950;SDS011;45812;53.540;9.774;2023-02-21T10:00:32;13.45;;;3.22;;
59950;SDS011;45812;53.540;9.774;2023-02-21T10:03:13;15.98;;;3.53;;
59950;SDS011;45812;53.540;9.774;2023-02-21T10:05:53;13.25;;;2.30;;
59950;SDS011;45812;53.540;9.774;2023-02-21T10:08:34;13.60;;;3.03;;
59950;SDS011;45812;53.540;9.774;2023-02-21T10:16:55;10.02;;;2.80;;
59950;SDS011;45812;53.540;9.774;2023-02-21T10:19:33;14.60;;;2.50;;
59950;SDS011;45812;53.540;9.774;2023-02-21T10:22:02;15.32;;;3.35;;
59950;SDS011;45812;53.540;9.774;2023-02-21T10:24:37;21.65;;;3.50;;
59950;SDS011;45812;53.540;9.774;2023-02-21T10:27:11;15.38;;;2.53;;
59950;SDS011;45812;53.540;9.774;2023-02-21T10:32:13;11.27;;;2.30;;
59950;SDS011;45812;53.540;9.774;2023-02-21T10:34:38;13.90;;;2.38;;
59950;SDS011;45812;53.540;9.774;2023-02-21T10:40:15;10.63;;;2.42;;
59950;SDS011;45812;53.540;9.774;2023-02-21T10:42:53;10.82;;;2.08;;
59950;SDS011;45812;53.540;9.774;2023-02-21T10:45:31;15.73;;;3.42;;
59950;SDS011;45812;53.540;9.774;2023-02-21T10:48:03;12.73;;;3.17;;
59950;SDS011;45812;53.540;9.774;2023-02-21T10:50:40;9.93;;;3.03;;
59950;SDS011;45812;53.540;9.774;2023-02-21T10:56:05;10.70;;;2.35;;
59950;SDS011;45812;53.540;9.774;2023-02-21T10:58:55;13.05;;;3.35;;
59950;SDS011;45812;53.540;9.774;2023-02-21T11:03:55;13.63;;;2.97;;
59950;SDS011;45812;53.540;9.774;2023-02-21T11:08:55;9.88;;;2.25;;
59950;SDS011;45812;53.540;9.774;2023-02-21T11:11:40;11.55;;;2.13;;
59950;SDS011;45812;53.540;9.774;2023-02-21T11:14:23;6.68;;;2.13;;
59950;SDS011;45812;53.540;9.774;2023-02-21T11:19:44;7.53;;;1.77;;
59950;SDS011;45812;53.540;9.774;2023-02-21T11:22:24;11.02;;;3.22;;
59950;SDS011;45812;53.540;9.774;2023-02-21T11:27:23;7.05;;;2.67;;
59950;SDS011;45812;53.540;9.774;2023-02-21T11:29:49;8.18;;;2.78;;
59950;SDS011;45812;53.540;9.774;2023-02-21T11:32:25;9.18;;;2.30;;
59950;SDS011;45812;53.540;9.774;2023-02-21T11:35:03;10.05;;;2.67;;
59950;SDS011;45812;53.540;9.774;2023-02-21T11:37:32;4.75;;;1.58;;
59950;SDS011;45812;53.540;9.774;2023-02-21T11:39:58;5.85;;;2.20;;
59950;SDS011;45812;53.540;9.774;2023-02-21T11:42:31;4.47;;;1.70;;
59950;SDS011;45812;53.540;9.774;2023-02-21T11:45:17;4.57;;;1.98;;
59950;SDS011;45812;53.540;9.774;2023-02-21T11:47:51;8.48;;;2.30;;
59950;SDS011;45812;53.540;9.774;2023-02-21T11:50:27;4.05;;;2.40;;
59950;SDS011;45812;53.540;9.774;2023-02-21T11:53:10;7.72;;;2.50;;
59950;SDS011;45812;53.540;9.774;2023-02-21T11:55:41;6.22;;;2.45;;
59950;SDS011;45812;53.540;9.774;2023-02-21T11:58:19;10.35;;;2.97;;
59950;SDS011;45812;53.540;9.774;2023-02-21T12:01:03;11.00;;;2.33;;
59950;SDS011;45812;53.540;9.774;2023-02-21T12:08:52;3.72;;;2.30;;
59950;SDS011;45812;53.540;9.774;2023-02-21T12:14:21;5.90;;;2.00;;
59950;SDS011;45812;53.540;9.774;2023-02-21T12:19:47;6.18;;;1.63;;
59950;SDS011;45812;53.540;9.774;2023-02-21T12:22:30;3.00;;;1.55;;
59950;SDS011;45812;53.540;9.774;2023-02-21T12:25:22;3.15;;;1.70;;
59950;SDS011;45812;53.540;9.774;2023-02-21T12:28:03;3.40;;;1.77;;
59950;SDS011;45812;53.540;9.774;2023-02-21T12:30:47;2.88;;;1.50;;
59950;SDS011;45812;53.540;9.774;2023-02-21T12:33:42;7.13;;;2.28;;
59950;SDS011;45812;53.540;9.774;2023-02-21T12:40:15;2.92;;;1.38;;
59950;SDS011;45812;53.540;9.774;2023-02-21T12:48:04;7.18;;;1.77;;
59950;SDS011;45812;53.540;9.774;2023-02-21T12:50:35;10.63;;;2.58;;
59950;SDS011;45812;53.540;9.774;2023-02-21T12:53:07;7.32;;;1.75;;
59950;SDS011;45812;53.540;9.774;2023-02-21T12:55:51;11.40;;;2.30;;
59950;SDS011;45812;53.540;9.774;2023-02-21T13:01:17;13.32;;;2.60;;
59950;SDS011;45812;53.540;9.774;2023-02-21T13:06:31;6.20;;;1.92;;
59950;SDS011;45812;53.540;9.774;2023-02-21T13:09:21;12.35;;;2.70;;
59950;SDS011;45812;53.540;9.774;2023-02-21T13:11:57;13.02;;;1.92;;
59950;SDS011;45812;53.540;9.774;2023-02-21T13:14:32;9.40;;;2.08;;
59950;SDS011;45812;53.540;9.774;2023-02-21T13:17:03;6.70;;;2.30;;
59950;SDS011;45812;53.540;9.774;2023-02-21T13:19:34;9.95;;;2.38;;
59950;SDS011;45812;53.540;9.774;2023-02-21T13:22:14;8.40;;;1.92;;
59950;SDS011;45812;53.540;9.774;2023-02-21T13:25:24;6.57;;;1.85;;
59950;SDS011;45812;53.540;9.774;2023-02-21T13:28:09;10.07;;;2.15;;
59950;SDS011;45812;53.540;9.774;2023-02-21T13:30:56;10.65;;;2.13;;
59950;SDS011;45812;53.540;9.774;2023-02-21T13:33:34;8.15;;;2.40;;
59950;SDS011;45812;53.540;9.774;2023-02-21T13:36:27;9.73;;;2.10;;
59950;SDS011;45812;53.540;9.774;2023-02-21T13:39:04;5.20;;;1.77;;
59950;SDS011;45812;53.540;9.774;2023-02-21T13:41:43;8.05;;;2.10;;
59950;SDS011;45812;53.540;9.774;2023-02-21T13:44:15;10.43;;;2.55;;
59950;SDS011;45812;53.540;9.774;2023-02-21T13:52:22;6.93;;;2.38;;
59950;SDS011;45812;53.540;9.774;2023-02-21T14:08:07;9.48;;;1.73;;
59950;SDS011;45812;53.540;9.774;2023-02-21T14:10:37;7.03;;;2.13;;
59950;SDS011;45812;53.540;9.774;2023-02-21T14:15:57;7.50;;;2.22;;
59950;SDS011;45812;53.540;9.774;2023-02-21T14:18:25;8.18;;;1.67;;
59950;SDS011;45812;53.540;9.774;2023-02-21T14:20:54;4.03;;;1.77;;
59950;SDS011;45812;53.540;9.774;2023-02-21T14:23:21;6.82;;;1.90;;
59950;SDS011;45812;53.540;9.774;2023-02-21T14:25:56;7.28;;;2.33;;
59950;SDS011;45812;53.540;9.774;2023-02-21T14:34:21;6.13;;;1.77;;
59950;SDS011;45812;53.540;9.774;2023-02-21T14:36:50;9.00;;;1.67;;
59950;SDS011;45812;53.540;9.774;2023-02-21T14:39:18;4.78;;;1.60;;
59950;SDS011;45812;53.540;9.774;2023-02-21T14:47:31;4.25;;;1.67;;
59950;SDS011;45812;53.540;9.774;2023-02-21T14:50:13;4.28;;;1.77;;
59950;SDS011;45812;53.540;9.774;2023-02-21T14:52:53;2.90;;;1.37;;
59950;SDS011;45812;53.540;9.774;2023-02-21T14:58:25;4.47;;;1.65;;
59950;SDS011;45812;53.540;9.774;2023-02-21T15:01:04;7.65;;;1.88;;
59950;SDS011;45812;53.540;9.774;2023-02-21T15:03:46;9.35;;;1.92;;
59950;SDS011;45812;53.540;9.774;2023-02-21T15:06:36;5.43;;;1.52;;
59950;SDS011;45812;53.540;9.774;2023-02-21T15:09:12;5.93;;;1.27;;
59950;SDS011;45812;53.540;9.774;2023-02-21T15:11:42;8.07;;;2.05;;
59950;SDS011;45812;53.540;9.774;2023-02-21T15:16:54;6.57;;;1.45;;
59950;SDS011;45812;53.540;9.774;2023-02-21T15:24:39;5.53;;;1.52;;
59950;SDS011;45812;53.540;9.774;2023-02-21T15:27:08;5.05;;;1.60;;
59950;SDS011;45812;53.540;9.774;2023-02-21T15:29:37;6.40;;;1.50;;
59950;SDS011;45812;53.540;9.774;2023-02-21T15:32:03;2.95;;;1.52;;
59950;SDS011;45812;53.540;9.774;2023-02-21T15:34:31;5.65;;;1.50;;
59950;SDS011;45812;53.540;9.774;2023-02-21T15:37:17;7.78;;;1.52;;
59950;SDS011;45812;53.540;9.774;2023-02-21T15:39:49;4.78;;;1.65;;
59950;SDS011;45812;53.540;9.774;2023-02-21T15:42:21;5.55;;;2.05;;
59950;SDS011;45812;53.540;9.774;2023-02-21T15:44:49;3.72;;;1.35;;
59950;SDS011;45812;53.540;9.774;2023-02-21T15:47:26;4.68;;;2.55;;
59950;SDS011;45812;53.540;9.774;2023-02-21T15:50:08;5.47;;;2.00;;
59950;SDS011;45812;53.540;9.774;2023-02-21T15:52:47;4.82;;;2.00;;
59950;SDS011;45812;53.540;9.774;2023-02-21T15:57:57;10.60;;;1.92;;
59950;SDS011;45812;53.540;9.774;2023-02-21T16:00:40;10.85;;;1.92;;
59950;SDS011;45812;53.540;9.774;2023-02-21T16:03:29;5.93;;;1.92;;
59950;SDS011;45812;53.540;9.774;2023-02-21T16:06:16;4.88;;;2.08;;
59950;SDS011;45812;53.540;9.774;2023-02-21T16:11:37;7.88;;;2.08;;
59950;SDS011;45812;53.540;9.774;2023-02-21T16:14:04;5.15;;;1.92;;
59950;SDS011;45812;53.540;9.774;2023-02-21T16:16:33;10.73;;;1.98;;
59950;SDS011;45812;53.540;9.774;2023-02-21T16:18:59;10.63;;;1.92;;
59950;SDS011;45812;53.540;9.774;2023-02-21T16:21:26;7.78;;;1.85;;
59950;SDS011;45812;53.540;9.774;2023-02-21T16:23:53;5.45;;;1.63;;
59950;SDS011;45812;53.540;9.774;2023-02-21T16:26:20;8.38;;;2.33;;
59950;SDS011;45812;53.540;9.774;2023-02-21T16:28:52;5.30;;;1.57;;
59950;SDS011;45812;53.540;9.774;2023-02-21T16:31:24;9.75;;;2.15;;
59950;SDS011;45812;53.540;9.774;2023-02-21T16:33:54;12.50;;;2.65;;
59950;SDS011;45812;53.540;9.774;2023-02-21T16:36:22;6.00;;;1.92;;
59950;SDS011;45812;53.540;9.774;2023-02-21T16:38:52;8.30;;;2.13;;
59950;SDS011;45812;53.540;9.774;2023-02-21T16:41:18;5.00;;;1.42;;
59950;SDS011;45812;53.540;9.774;2023-02-21T16:43:43;8.35;;;1.98;;
59950;SDS011;45812;53.540;9.774;2023-02-21T16:46:09;7.95;;;2.78;;
59950;SDS011;45812;53.540;9.774;2023-02-21T16:48:34;9.40;;;2.05;;
59950;SDS011;45812;53.540;9.774;2023-02-21T16:51:01;3.83;;;1.65;;
59950;SDS011;45812;53.540;9.774;2023-02-21T16:53:31;12.88;;;2.17;;
59950;SDS011;45812;53.540;9.774;2023-02-21T16:55:56;12.60;;;2.72;;
59950;SDS011;45812;53.540;9.774;2023-02-21T16:58:24;7.20;;;2.53;;
59950;SDS011;45812;53.540;9.774;2023-02-21T17:00:52;7.38;;;2.38;;
59950;SDS011;45812;53.540;9.774;2023-02-21T17:03:20;9.40;;;2.25;;
59950;SDS011;45812;53.540;9.774;2023-02-21T17:05:46;6.88;;;2.13;;
59950;SDS011;45812;53.540;9.774;2023-02-21T17:08:12;5.00;;;1.98;;
59950;SDS011;45812;53.540;9.774;2023-02-21T17:10:38;8.65;;;2.42;;
59950;SDS011;45812;53.540;9.774;2023-02-21T17:13:03;4.38;;;1.90;;